Terminal Aerodrome Forecast
Issued by NWS Louisville, KY

Home | Current Version | Previous Version | Text Only | Print | Product List | Glossary On
Versions: 1 2 3 4 5 6 7 8 9 10 11 12 13 14 15 16 17 18 19
000
FTUS43 KLMK 202300
TAFBWG
TAF
KBWG 202339Z 2100/2124 24006KT P6SM SCT040 SCT100
     FM210700 00000KT 4SM BR SCT250
      TEMPO 2109/2113 1SM BR SCT002
     FM211400 24007KT P6SM FEW040 SCT250=

USA.gov is the U.S. government's official web portal to all federal, state and local government web resources and services.